createdAt,value
2018-12-20T00:00:12.454Z,99.90
2018-12-20T00:01:20.457Z,99.90
2018-12-20T00:02:26.745Z,99.90
2018-12-20T00:03:32.675Z,99.90
2018-12-20T00:04:38.770Z,99.90
2018-12-20T00:05:44.709Z,99.90
2018-12-20T00:06:50.832Z,99.90
2018-12-20T00:07:56.747Z,99.90
2018-12-20T00:09:02.676Z,99.90
2018-12-20T00:10:09.211Z,99.90
2018-12-20T00:11:15.074Z,99.90
2018-12-20T00:12:21.672Z,99.90
2018-12-20T00:13:28.660Z,99.90
2018-12-20T00:14:34.689Z,99.90
2018-12-20T00:15:41.849Z,99.90
2018-12-20T00:16:50.214Z,99.90
2018-12-20T00:17:55.886Z,99.90
2018-12-20T00:19:01.870Z,99.90
2018-12-20T00:20:07.891Z,99.90
2018-12-20T00:21:14.130Z,99.90
2018-12-20T00:22:20.303Z,99.90
2018-12-20T00:23:26.799Z,99.90
2018-12-20T00:24:33.851Z,99.90
2018-12-20T00:25:40.248Z,99.90
2018-12-20T00:26:46.811Z,99.90
2018-12-20T00:27:52.666Z,99.90
2018-12-20T00:28:58.470Z,99.90
2018-12-20T00:30:04.646Z,99.90
2018-12-20T00:31:13.609Z,99.90
2018-12-20T00:32:18.504Z,99.90
2018-12-20T00:33:24.723Z,99.90
2018-12-20T00:34:30.762Z,99.90
2018-12-20T00:35:36.622Z,99.90
2018-12-20T00:36:42.642Z,99.90
2018-12-20T00:37:49.798Z,99.90
2018-12-20T00:38:56.994Z,99.90
2018-12-20T00:40:06.357Z,99.90
2018-12-20T00:41:11.072Z,99.90
2018-12-20T00:42:17.071Z,99.90
2018-12-20T00:43:23.203Z,99.90
2018-12-20T00:44:29.510Z,99.90
2018-12-20T00:45:35.772Z,99.90
2018-12-20T00:46:41.609Z,99.90
2018-12-20T00:47:48.046Z,99.90
2018-12-20T00:48:55.370Z,99.90
2018-12-20T00:50:01.194Z,99.90
2018-12-20T00:51:08.211Z,99.90
2018-12-20T00:52:14.892Z,99.90
2018-12-20T00:53:20.945Z,99.90
2018-12-20T00:54:27.044Z,99.90
2018-12-20T00:55:33.570Z,99.90
2018-12-20T00:56:40.186Z,99.90
2018-12-20T00:57:46.144Z,99.90
2018-12-20T00:58:52.536Z,99.90
2018-12-20T00:59:58.579Z,99.90
2018-12-20T01:01:04.408Z,99.90
2018-12-20T01:02:10.381Z,99.90
2018-12-20T01:03:16.220Z,99.90
2018-12-20T01:04:22.026Z,99.90
2018-12-20T01:05:28.305Z,99.90
2018-12-20T01:06:34.229Z,99.90
2018-12-20T01:07:41.499Z,99.90
2018-12-20T01:08:47.696Z,99.90
2018-12-20T01:09:53.094Z,99.90
2018-12-20T01:10:59.373Z,99.90
2018-12-20T01:12:05.130Z,99.90
2018-12-20T01:13:10.898Z,99.90
2018-12-20T01:14:17.128Z,99.90
2018-12-20T01:15:22.917Z,99.90
2018-12-20T01:16:29.211Z,99.90
2018-12-20T01:17:39.419Z,99.90
2018-12-20T01:18:45.629Z,99.90
2018-12-20T01:19:51.443Z,99.90
2018-12-20T01:20:57.401Z,99.90
2018-12-20T01:22:03.463Z,99.90
2018-12-20T01:23:08.868Z,99.90
2018-12-20T01:24:14.229Z,99.90
2018-12-20T01:25:20.384Z,99.90
2018-12-20T01:26:26.396Z,99.90
2018-12-20T01:27:32.651Z,99.90
2018-12-20T01:28:38.972Z,99.90
2018-12-20T01:29:44.988Z,99.90
2018-12-20T01:30:50.821Z,99.90
2018-12-20T01:31:56.859Z,99.90
2018-12-20T01:33:02.130Z,99.90
2018-12-20T01:34:07.018Z,99.90
2018-12-20T01:35:12.789Z,99.90
2018-12-20T01:36:18.941Z,99.90
2018-12-20T01:37:25.091Z,99.90
2018-12-20T01:38:31.300Z,99.90
2018-12-20T01:39:36.954Z,99.90
2018-12-20T01:40:43.423Z,99.90
2018-12-20T01:41:49.381Z,99.90
2018-12-20T01:42:55.885Z,99.90
2018-12-20T01:44:02.029Z,99.90
2018-12-20T01:45:07.741Z,99.90
2018-12-20T01:46:13.795Z,99.90
2018-12-20T01:47:19.983Z,99.90
2018-12-20T01:48:25.960Z,99.90
2018-12-20T01:49:31.949Z,99.90
2018-12-20T01:50:37.858Z,99.90
2018-12-20T01:51:45.167Z,99.90
2018-12-20T01:52:51.335Z,99.90
2018-12-20T01:53:57.235Z,99.90
2018-12-20T01:55:03.420Z,99.90
2018-12-20T01:56:09.626Z,99.90
2018-12-20T01:57:15.601Z,99.90
2018-12-20T01:58:21.939Z,99.90
2018-12-20T01:59:28.341Z,99.90
2018-12-20T02:00:34.509Z,99.90
2018-12-20T02:01:40.625Z,99.90
2018-12-20T02:02:46.920Z,99.90
2018-12-20T02:03:52.980Z,99.90
2018-12-20T02:04:58.958Z,99.90
2018-12-20T02:06:04.955Z,99.90
2018-12-20T02:07:10.926Z,99.90
2018-12-20T02:08:16.520Z,99.90
2018-12-20T02:09:22.721Z,99.90
2018-12-20T02:10:28.854Z,99.90
2018-12-20T02:11:35.262Z,99.90
2018-12-20T02:12:41.130Z,99.90
2018-12-20T02:13:47.379Z,99.90
2018-12-20T02:15:01.444Z,99.90
2018-12-20T02:16:01.911Z,99.90
2018-12-20T02:17:08.176Z,99.90
2018-12-20T02:18:14.625Z,99.90
2018-12-20T02:19:20.667Z,99.90
2018-12-20T02:20:27.019Z,99.90
2018-12-20T02:21:33.143Z,99.90
2018-12-20T02:22:38.882Z,99.90
2018-12-20T02:23:45.049Z,99.90
2018-12-20T02:24:51.002Z,99.90
2018-12-20T02:25:56.756Z,99.90
2018-12-20T02:27:02.493Z,99.90
2018-12-20T02:28:08.930Z,99.90
2018-12-20T02:29:15.037Z,99.90
2018-12-20T02:30:21.286Z,99.90
2018-12-20T02:31:28.520Z,99.90
2018-12-20T02:32:34.691Z,99.90
2018-12-20T02:33:42.001Z,99.90
2018-12-20T02:34:48.251Z,99.90
2018-12-20T02:35:54.783Z,99.90
2018-12-20T02:37:01.150Z,99.90
2018-12-20T02:38:07.847Z,99.90
2018-12-20T02:39:13.911Z,99.90
2018-12-20T02:40:20.345Z,99.90
2018-12-20T02:41:26.504Z,99.90
2018-12-20T02:42:32.941Z,99.90
2018-12-20T02:43:38.648Z,99.90
2018-12-20T02:44:44.886Z,99.90
2018-12-20T02:45:51.079Z,99.90
2018-12-20T02:46:56.709Z,99.90
2018-12-20T02:48:02.900Z,99.90
2018-12-20T02:49:09.578Z,99.90
2018-12-20T02:50:16.618Z,99.90
2018-12-20T02:51:22.906Z,99.90
2018-12-20T02:52:29.236Z,99.90
2018-12-20T02:53:34.585Z,99.90
2018-12-20T02:54:43.456Z,99.90
2018-12-20T02:55:49.426Z,99.90
2018-12-20T02:56:55.663Z,99.90
2018-12-20T02:58:02.107Z,99.90
2018-12-20T02:59:08.617Z,99.90
2018-12-20T03:00:15.351Z,99.90
2018-12-20T03:01:21.511Z,99.90
2018-12-20T03:02:27.536Z,99.90
2018-12-20T03:03:33.513Z,99.90
2018-12-20T03:04:39.335Z,99.90
2018-12-20T03:05:45.198Z,99.90
2018-12-20T03:06:51.434Z,99.90
2018-12-20T03:07:58.622Z,99.90
2018-12-20T03:09:06.360Z,99.90
2018-12-20T03:10:12.445Z,99.90
2018-12-20T03:11:19.040Z,99.90
2018-12-20T03:12:25.584Z,99.90
2018-12-20T03:13:32.047Z,99.90
2018-12-20T03:14:37.973Z,99.90
2018-12-20T03:15:44.563Z,99.90
2018-12-20T03:16:50.436Z,99.90
2018-12-20T03:17:56.401Z,99.90
2018-12-20T03:19:03.041Z,99.90
2018-12-20T03:20:09.213Z,99.90
2018-12-20T03:21:15.217Z,99.90
2018-12-20T03:22:21.334Z,99.90
2018-12-20T03:23:28.900Z,99.90
2018-12-20T03:24:36.024Z,99.90
2018-12-20T03:25:42.564Z,99.90
2018-12-20T03:26:48.766Z,99.90
2018-12-20T03:27:54.939Z,99.90
2018-12-20T03:29:01.084Z,99.90
2018-12-20T03:30:07.172Z,99.90
2018-12-20T03:31:13.784Z,99.90
2018-12-20T03:32:19.685Z,99.90
2018-12-20T03:33:26.040Z,99.90
2018-12-20T03:34:32.868Z,99.90
2018-12-20T03:35:38.908Z,99.90
2018-12-20T03:36:45.116Z,99.90
2018-12-20T03:37:51.199Z,99.90
2018-12-20T03:38:57.210Z,99.90
2018-12-20T03:40:03.111Z,99.90
2018-12-20T03:41:09.380Z,99.90
2018-12-20T03:42:15.232Z,99.90
2018-12-20T03:43:21.076Z,99.90
2018-12-20T03:44:26.939Z,99.90
2018-12-20T03:45:33.404Z,99.90
2018-12-20T03:46:39.754Z,99.90
2018-12-20T03:47:45.408Z,99.90
2018-12-20T03:48:51.411Z,99.90
2018-12-20T03:49:57.865Z,99.90
2018-12-20T03:51:04.019Z,99.90
2018-12-20T03:52:10.752Z,99.90
2018-12-20T03:53:17.230Z,99.90
2018-12-20T03:54:23.089Z,99.90
2018-12-20T03:55:29.260Z,99.90
2018-12-20T03:56:35.116Z,99.90
2018-12-20T03:57:42.408Z,99.90
2018-12-20T03:58:48.523Z,99.90
2018-12-20T03:59:55.032Z,99.90
2018-12-20T04:01:01.104Z,99.90
2018-12-20T04:02:07.362Z,99.90
2018-12-20T04:03:13.647Z,99.90
2018-12-20T04:04:20.650Z,99.90
2018-12-20T04:05:26.640Z,99.90
2018-12-20T04:06:32.694Z,99.90
2018-12-20T04:07:38.825Z,99.90
2018-12-20T04:08:44.480Z,99.90
2018-12-20T04:09:50.334Z,99.90
2018-12-20T04:10:55.902Z,99.90
2018-12-20T04:12:01.895Z,99.90
2018-12-20T04:13:08.024Z,99.90
2018-12-20T04:14:14.187Z,99.90
2018-12-20T04:15:19.873Z,99.90
2018-12-20T04:16:25.667Z,99.90
2018-12-20T04:17:31.833Z,99.90
2018-12-20T04:18:37.834Z,99.90
2018-12-20T04:19:43.715Z,99.90
2018-12-20T04:20:49.794Z,99.90
2018-12-20T04:21:55.968Z,99.90
2018-12-20T04:23:01.881Z,99.90
2018-12-20T04:24:07.914Z,99.90
2018-12-20T04:25:14.068Z,99.90
2018-12-20T04:26:21.338Z,99.90
2018-12-20T04:27:27.338Z,99.90
2018-12-20T04:28:33.370Z,99.90
2018-12-20T04:29:39.203Z,99.90
2018-12-20T04:30:46.580Z,99.90
2018-12-20T04:31:52.802Z,99.90
2018-12-20T04:32:58.980Z,99.90
2018-12-20T04:34:05.531Z,99.90
2018-12-20T04:35:11.652Z,99.90
2018-12-20T04:36:17.982Z,99.90
2018-12-20T04:37:23.699Z,99.90
2018-12-20T04:38:30.561Z,99.90
2018-12-20T04:39:36.450Z,99.90
2018-12-20T04:40:42.387Z,99.90
2018-12-20T04:41:48.035Z,99.90
2018-12-20T04:42:54.074Z,99.90
2018-12-20T04:44:01.122Z,99.90
2018-12-20T04:45:06.640Z,99.90
2018-12-20T04:46:13.600Z,99.90
2018-12-20T04:47:20.037Z,99.90
2018-12-20T04:48:26.705Z,99.90
2018-12-20T04:49:33.160Z,99.90
2018-12-20T04:50:40.362Z,99.90
2018-12-20T04:51:46.902Z,99.90
2018-12-20T04:52:53.108Z,99.90
2018-12-20T04:53:59.060Z,99.90
2018-12-20T04:55:05.256Z,99.90
2018-12-20T04:56:11.950Z,99.90
2018-12-20T04:57:18.065Z,99.90
2018-12-20T04:58:24.220Z,99.90
2018-12-20T04:59:30.325Z,99.90
2018-12-20T05:00:36.320Z,99.90
2018-12-20T05:01:42.751Z,99.90
2018-12-20T05:02:48.334Z,99.90
2018-12-20T05:03:53.997Z,99.90
2018-12-20T05:04:59.953Z,99.90
2018-12-20T05:06:05.764Z,99.90
2018-12-20T05:07:11.972Z,99.90
2018-12-20T05:08:17.816Z,99.90
2018-12-20T05:09:23.776Z,99.90
2018-12-20T05:10:30.363Z,99.90
2018-12-20T05:11:36.590Z,99.90
2018-12-20T05:12:42.784Z,99.90
2018-12-20T05:13:48.737Z,99.90
2018-12-20T05:14:54.901Z,99.90
2018-12-20T05:16:01.025Z,99.90
2018-12-20T05:17:07.480Z,99.90
2018-12-20T05:18:13.736Z,99.90
2018-12-20T05:19:20.171Z,99.90
2018-12-20T05:20:26.329Z,99.90
2018-12-20T05:21:32.392Z,99.90
2018-12-20T05:22:38.191Z,99.90
2018-12-20T05:23:44.227Z,99.90
2018-12-20T05:24:49.696Z,99.90
2018-12-20T05:25:55.827Z,99.90
2018-12-20T05:27:01.947Z,99.90
2018-12-20T05:28:07.932Z,99.90
2018-12-20T05:29:14.686Z,99.90
2018-12-20T05:30:20.776Z,99.90
2018-12-20T05:31:26.976Z,99.90
2018-12-20T05:32:33.108Z,99.90
2018-12-20T05:33:39.285Z,99.90
2018-12-20T05:34:45.143Z,99.90
2018-12-20T05:35:51.425Z,99.90
2018-12-20T05:36:57.109Z,99.90
2018-12-20T05:38:03.223Z,99.90
2018-12-20T05:39:08.902Z,99.90
2018-12-20T05:40:14.866Z,99.90
2018-12-20T05:41:21.009Z,99.90
2018-12-20T05:42:27.151Z,99.90
2018-12-20T05:43:33.359Z,99.90
2018-12-20T05:44:38.803Z,99.90
2018-12-20T05:45:44.877Z,99.90
2018-12-20T05:46:50.969Z,99.90
2018-12-20T05:47:57.106Z,99.90
2018-12-20T05:49:03.155Z,99.90
2018-12-20T05:50:09.557Z,99.90
2018-12-20T05:51:16.327Z,99.90
2018-12-20T05:52:21.485Z,99.90
2018-12-20T05:53:27.138Z,99.90
2018-12-20T05:54:32.884Z,99.90
2018-12-20T05:55:38.920Z,99.90
2018-12-20T05:56:44.935Z,99.90
2018-12-20T05:57:51.005Z,99.90
2018-12-20T05:58:56.321Z,99.90
2018-12-20T06:00:02.639Z,99.90
2018-12-20T06:01:09.162Z,99.90
2018-12-20T06:02:15.788Z,99.90
2018-12-20T06:03:21.650Z,99.90
2018-12-20T06:04:27.244Z,99.90
2018-12-20T06:05:33.276Z,99.90
2018-12-20T06:06:39.121Z,99.90
2018-12-20T06:07:45.490Z,99.90
2018-12-20T06:08:51.725Z,99.90
2018-12-20T06:09:57.310Z,99.90
2018-12-20T06:11:03.350Z,99.90
2018-12-20T06:12:09.868Z,99.90
2018-12-20T06:13:15.671Z,99.90
2018-12-20T06:14:21.954Z,99.90
2018-12-20T06:15:27.467Z,99.90
2018-12-20T06:16:33.321Z,99.90
2018-12-20T06:17:38.635Z,99.90
2018-12-20T06:18:45.839Z,99.90
2018-12-20T06:19:52.821Z,99.90
2018-12-20T06:20:58.752Z,99.90
2018-12-20T06:22:04.646Z,99.90
2018-12-20T06:23:10.803Z,99.90
2018-12-20T06:24:16.714Z,99.90
2018-12-20T06:25:22.584Z,99.90
2018-12-20T06:26:29.831Z,99.90
2018-12-20T06:27:35.597Z,99.90
2018-12-20T06:28:41.652Z,99.90
2018-12-20T06:29:47.976Z,99.90
2018-12-20T06:30:53.993Z,99.90
2018-12-20T06:32:00.106Z,99.90
2018-12-20T06:33:07.852Z,99.90
2018-12-20T06:34:13.724Z,99.90
2018-12-20T06:35:19.939Z,99.90
2018-12-20T06:36:26.195Z,99.90
2018-12-20T06:37:32.340Z,99.90
2018-12-20T06:38:38.510Z,99.90
2018-12-20T06:39:44.360Z,99.90
2018-12-20T06:40:50.500Z,99.90
2018-12-20T06:41:56.599Z,99.90
2018-12-20T06:43:02.432Z,99.90
2018-12-20T06:44:08.244Z,99.90
2018-12-20T06:45:14.442Z,99.90
2018-12-20T06:46:21.239Z,99.90
2018-12-20T06:47:27.838Z,99.90
2018-12-20T06:48:33.890Z,99.90
2018-12-20T06:49:39.758Z,99.90
2018-12-20T06:50:45.756Z,99.90
2018-12-20T06:51:51.800Z,99.90
2018-12-20T06:52:57.929Z,99.90
2018-12-20T06:54:03.919Z,99.90
2018-12-20T06:55:11.238Z,99.90
2018-12-20T06:56:18.290Z,99.90
2018-12-20T06:57:24.444Z,99.90
2018-12-20T06:58:30.204Z,99.90
2018-12-20T06:59:36.108Z,99.90
2018-12-20T07:00:42.500Z,99.90
2018-12-20T07:01:48.310Z,99.90
2018-12-20T07:02:55.316Z,99.90
2018-12-20T07:04:01.238Z,99.90
2018-12-20T07:05:07.068Z,99.90
2018-12-20T07:06:13.188Z,99.90
2018-12-20T07:07:19.137Z,99.90
2018-12-20T07:08:25.153Z,99.90
2018-12-20T07:09:31.053Z,99.90
2018-12-20T07:10:37.035Z,99.90
2018-12-20T07:11:44.129Z,99.90
2018-12-20T07:12:50.332Z,99.90
2018-12-20T07:13:56.879Z,99.90
2018-12-20T07:15:02.929Z,99.90
2018-12-20T07:16:08.448Z,99.90
2018-12-20T07:17:14.950Z,99.90
2018-12-20T07:18:20.728Z,99.90
2018-12-20T07:19:26.462Z,99.90
2018-12-20T07:20:32.354Z,99.90
2018-12-20T07:21:38.344Z,99.90
2018-12-20T07:22:45.210Z,99.90
2018-12-20T07:23:51.465Z,99.90
2018-12-20T07:24:57.398Z,99.90
2018-12-20T07:26:03.341Z,99.90
2018-12-20T07:27:09.351Z,99.90
2018-12-20T07:28:15.201Z,99.90
2018-12-20T07:29:21.271Z,99.90
2018-12-20T07:30:27.119Z,99.90
2018-12-20T07:31:33.267Z,99.90
2018-12-20T07:32:39.008Z,99.90
2018-12-20T07:33:46.027Z,99.90
2018-12-20T07:34:52.025Z,99.90
2018-12-20T07:35:57.988Z,99.90
2018-12-20T07:37:04.574Z,99.90
2018-12-20T07:38:10.765Z,99.90
2018-12-20T07:39:16.712Z,99.90
2018-12-20T07:40:22.496Z,99.90
2018-12-20T07:41:28.756Z,99.90
2018-12-20T07:42:34.700Z,99.90
2018-12-20T07:43:40.760Z,99.90
2018-12-20T07:44:46.948Z,99.90
2018-12-20T07:45:52.346Z,99.90
2018-12-20T07:46:58.375Z,99.90
2018-12-20T07:48:04.415Z,99.90
2018-12-20T07:49:10.465Z,99.90
2018-12-20T07:50:16.604Z,99.90
2018-12-20T07:51:22.675Z,99.90
2018-12-20T07:52:28.865Z,99.90
2018-12-20T07:53:35.182Z,99.90
2018-12-20T07:54:41.023Z,99.90
2018-12-20T07:55:47.284Z,99.90
2018-12-20T07:56:53.053Z,99.90
2018-12-20T07:57:58.999Z,99.90
2018-12-20T07:59:06.038Z,99.90
2018-12-20T08:00:12.388Z,99.90
2018-12-20T08:01:18.366Z,99.90
2018-12-20T08:02:25.331Z,99.90
2018-12-20T08:03:31.665Z,99.90
2018-12-20T08:04:37.603Z,99.90
2018-12-20T08:05:43.595Z,99.90
2018-12-20T08:06:49.374Z,99.90
2018-12-20T08:07:55.653Z,99.90
2018-12-20T08:09:01.609Z,99.90
2018-12-20T08:10:09.359Z,99.90
2018-12-20T08:11:15.173Z,99.90
2018-12-20T08:12:21.493Z,99.90
2018-12-20T08:13:27.534Z,99.90
2018-12-20T08:14:33.554Z,99.90
2018-12-20T08:15:39.166Z,99.90
2018-12-20T08:16:46.123Z,99.90
2018-12-20T08:17:52.399Z,99.90
2018-12-20T08:18:58.118Z,99.90
2018-12-20T08:20:04.192Z,99.90
2018-12-20T08:21:09.942Z,99.90
2018-12-20T08:22:16.352Z,99.90
2018-12-20T08:23:22.413Z,99.90
2018-12-20T08:24:28.256Z,99.90
2018-12-20T08:25:34.373Z,99.90
2018-12-20T08:26:40.360Z,99.90
2018-12-20T08:27:46.344Z,99.90
2018-12-20T08:28:52.301Z,99.90
2018-12-20T08:29:58.621Z,99.90
2018-12-20T08:31:04.520Z,99.90
2018-12-20T08:32:10.569Z,99.90
2018-12-20T08:33:16.335Z,99.90
2018-12-20T08:34:22.425Z,99.90
2018-12-20T08:35:28.816Z,99.90
2018-12-20T08:36:34.642Z,99.90
2018-12-20T08:37:40.266Z,99.90
2018-12-20T08:38:46.530Z,99.90
2018-12-20T08:39:51.731Z,99.90
2018-12-20T08:40:58.842Z,99.90
2018-12-20T08:42:05.124Z,99.90
2018-12-20T08:43:12.904Z,99.90
2018-12-20T08:44:18.728Z,99.90
2018-12-20T08:45:25.116Z,99.90
2018-12-20T08:46:31.779Z,99.90
2018-12-20T08:47:37.475Z,99.90
2018-12-20T08:48:43.515Z,99.90
2018-12-20T08:49:49.348Z,99.90
2018-12-20T08:50:55.318Z,99.90
2018-12-20T08:52:01.049Z,99.90
2018-12-20T08:53:07.084Z,99.90
2018-12-20T08:54:13.148Z,99.90
2018-12-20T08:55:19.166Z,99.90
2018-12-20T08:56:25.230Z,99.90
2018-12-20T08:57:31.390Z,99.90
2018-12-20T08:58:37.448Z,99.90
2018-12-20T08:59:43.672Z,99.90
2018-12-20T09:00:50.844Z,99.90
2018-12-20T09:01:56.947Z,99.90
2018-12-20T09:03:02.920Z,99.90
2018-12-20T09:04:08.841Z,99.90
2018-12-20T09:05:15.283Z,99.90
2018-12-20T09:06:21.050Z,99.90
2018-12-20T09:07:27.179Z,99.90
2018-12-20T09:08:33.295Z,99.90
2018-12-20T09:09:39.619Z,99.90
2018-12-20T09:10:46.047Z,99.90
2018-12-20T09:11:53.300Z,99.90
2018-12-20T09:13:00.471Z,99.90
2018-12-20T09:14:06.620Z,99.90
2018-12-20T09:15:13.238Z,99.90
2018-12-20T09:16:19.340Z,99.90
2018-12-20T09:17:25.689Z,99.90
2018-12-20T09:18:32.192Z,99.90
2018-12-20T09:19:38.032Z,99.90
2018-12-20T09:20:44.220Z,99.90
2018-12-20T09:21:50.872Z,99.90
2018-12-20T09:22:57.032Z,99.90
2018-12-20T09:24:03.164Z,99.90
2018-12-20T09:25:10.353Z,99.90
2018-12-20T09:26:16.446Z,99.90
2018-12-20T09:27:22.152Z,99.90
2018-12-20T09:28:28.225Z,99.90
2018-12-20T09:29:34.326Z,99.90
2018-12-20T09:30:40.489Z,99.90
2018-12-20T09:31:46.129Z,99.90
2018-12-20T09:32:52.224Z,99.90
2018-12-20T09:33:58.461Z,99.90
2018-12-20T09:35:04.270Z,99.90
2018-12-20T09:36:10.020Z,99.90
2018-12-20T09:37:16.214Z,99.90
2018-12-20T09:38:22.180Z,99.90
2018-12-20T09:39:28.228Z,99.90
2018-12-20T09:40:34.350Z,99.90
2018-12-20T09:41:40.329Z,99.90
2018-12-20T09:42:46.714Z,99.90
2018-12-20T09:43:53.780Z,99.90
2018-12-20T09:44:59.639Z,99.90
2018-12-20T09:46:06.844Z,99.90
2018-12-20T09:47:17.719Z,99.90
2018-12-20T09:48:23.903Z,99.90
2018-12-20T09:49:30.074Z,99.90
2018-12-20T09:50:36.168Z,99.90
2018-12-20T09:51:42.049Z,99.90
2018-12-20T09:52:48.488Z,99.90
2018-12-20T09:53:54.524Z,99.90
2018-12-20T09:55:00.440Z,99.90
2018-12-20T09:56:06.145Z,99.90
2018-12-20T09:57:11.971Z,99.90
2018-12-20T09:58:17.895Z,99.90
2018-12-20T09:59:24.013Z,99.90
2018-12-20T10:00:29.952Z,99.90
2018-12-20T10:01:36.129Z,99.90
2018-12-20T10:02:42.274Z,99.90
2018-12-20T10:03:48.201Z,99.90
2018-12-20T10:04:54.175Z,99.90
2018-12-20T10:06:01.165Z,99.90
2018-12-20T10:07:07.175Z,99.90
2018-12-20T10:08:13.246Z,99.90
2018-12-20T10:09:19.636Z,99.90
2018-12-20T10:10:25.717Z,99.90
2018-12-20T10:11:31.982Z,99.90
2018-12-20T10:12:37.714Z,99.90
2018-12-20T10:13:43.532Z,99.90
2018-12-20T10:14:49.931Z,99.90
2018-12-20T10:15:56.277Z,99.90
2018-12-20T10:17:02.025Z,99.90
2018-12-20T10:18:08.114Z,99.90
2018-12-20T10:19:13.891Z,99.90
2018-12-20T10:20:20.247Z,99.90
2018-12-20T10:21:26.703Z,99.90
2018-12-20T10:22:32.775Z,99.90
2018-12-20T10:23:38.857Z,99.90
2018-12-20T10:24:45.018Z,99.90
2018-12-20T10:25:51.964Z,99.90
2018-12-20T10:26:57.968Z,99.90
2018-12-20T10:28:04.215Z,99.90
2018-12-20T10:29:10.289Z,99.90
2018-12-20T10:30:16.796Z,99.90
2018-12-20T10:31:22.756Z,99.90
2018-12-20T10:32:29.204Z,99.90
2018-12-20T10:33:35.384Z,99.90
2018-12-20T10:34:41.375Z,99.90
2018-12-20T10:35:47.776Z,99.90
2018-12-20T10:36:53.711Z,99.90
2018-12-20T10:38:00.135Z,99.90
2018-12-20T10:39:07.900Z,99.90
2018-12-20T10:40:13.876Z,99.90
2018-12-20T10:41:20.389Z,99.90
2018-12-20T10:42:26.553Z,99.90
2018-12-20T10:43:32.391Z,99.90
2018-12-20T10:44:38.552Z,99.90
2018-12-20T10:45:44.150Z,99.90
2018-12-20T10:46:49.758Z,99.90
2018-12-20T10:47:55.810Z,99.90
2018-12-20T10:49:01.963Z,99.90
2018-12-20T10:50:08.644Z,99.90
2018-12-20T10:51:14.766Z,99.90
2018-12-20T10:52:20.654Z,99.90
2018-12-20T10:53:26.456Z,99.90
2018-12-20T10:54:32.335Z,99.90
2018-12-20T10:55:38.435Z,99.70
2018-12-20T10:56:44.335Z,99.90
2018-12-20T10:57:50.204Z,99.90
2018-12-20T10:58:55.907Z,99.90
2018-12-20T11:00:01.816Z,99.80
2018-12-20T11:01:13.167Z,99.80
2018-12-20T11:02:24.768Z,99.60
2018-12-20T11:03:35.979Z,99.20
2018-12-20T11:04:47.363Z,99.00
2018-12-20T11:06:08.271Z,99.10
2018-12-20T11:07:19.312Z,99.00
2018-12-20T11:08:28.194Z,99.00
2018-12-20T11:09:39.555Z,99.00
2018-12-20T11:10:45.625Z,98.50
2018-12-20T11:11:56.886Z,98.80
2018-12-20T11:13:04.729Z,98.20
2018-12-20T11:14:10.745Z,98.20
2018-12-20T11:15:17.258Z,98.00
2018-12-20T11:16:23.528Z,97.50
2018-12-20T11:17:37.187Z,97.60
2018-12-20T11:18:37.833Z,97.10
2018-12-20T11:19:43.868Z,97.30
2018-12-20T11:20:49.651Z,97.20
2018-12-20T11:21:55.794Z,97.10
2018-12-20T11:23:01.712Z,96.90
2018-12-20T11:24:07.640Z,97.10
2018-12-20T11:25:13.559Z,96.90
2018-12-20T11:26:19.636Z,96.70
2018-12-20T11:27:25.860Z,96.50
2018-12-20T11:28:32.133Z,96.50
2018-12-20T11:29:38.069Z,96.50
2018-12-20T11:30:43.540Z,96.40
2018-12-20T11:31:49.948Z,96.40
2018-12-20T11:32:55.608Z,96.20
2018-12-20T11:34:01.661Z,96.30
2018-12-20T11:35:07.183Z,96.30
2018-12-20T11:36:14.255Z,96.40
2018-12-20T11:37:19.757Z,96.40
2018-12-20T11:38:25.979Z,96.30
2018-12-20T11:39:31.922Z,96.30
2018-12-20T11:40:37.688Z,96.10
2018-12-20T11:41:43.728Z,96.00
2018-12-20T11:42:49.478Z,96.10
2018-12-20T11:43:55.350Z,96.20
2018-12-20T11:45:01.210Z,96.20
2018-12-20T11:46:07.286Z,96.20
2018-12-20T11:47:28.470Z,96.40
2018-12-20T11:48:34.540Z,96.70
2018-12-20T11:49:41.256Z,96.60
2018-12-20T11:50:46.864Z,96.70
2018-12-20T11:51:52.921Z,97.00
2018-12-20T11:52:58.641Z,96.90
2018-12-20T11:54:04.671Z,96.80
2018-12-20T11:55:10.325Z,96.90
2018-12-20T11:56:16.114Z,96.90
2018-12-20T11:57:22.386Z,96.80
2018-12-20T11:58:29.321Z,96.70
2018-12-20T11:59:36.468Z,96.70
2018-12-20T12:00:42.241Z,96.70
2018-12-20T12:01:48.473Z,96.70
2018-12-20T12:02:55.389Z,96.70
2018-12-20T12:04:01.114Z,96.70
2018-12-20T12:05:07.122Z,96.60
2018-12-20T12:06:12.973Z,96.70
2018-12-20T12:07:19.073Z,96.50
2018-12-20T12:08:26.144Z,96.50
2018-12-20T12:09:32.071Z,96.40
2018-12-20T12:10:38.001Z,96.10
2018-12-20T12:11:44.052Z,96.20
2018-12-20T12:12:50.225Z,95.80
2018-12-20T12:13:56.357Z,95.80
2018-12-20T12:15:02.744Z,95.80
2018-12-20T12:16:09.113Z,95.80
2018-12-20T12:17:15.103Z,95.80
2018-12-20T12:18:21.224Z,95.30
2018-12-20T12:19:26.914Z,95.30
2018-12-20T12:20:32.606Z,95.40
2018-12-20T12:21:38.804Z,95.30
2018-12-20T12:22:44.981Z,95.10
2018-12-20T12:23:51.116Z,95.20
2018-12-20T12:24:57.499Z,95.40
2018-12-20T12:26:02.670Z,95.40
2018-12-20T12:27:08.785Z,95.40
2018-12-20T12:28:15.817Z,95.30
2018-12-20T12:29:21.924Z,95.20
2018-12-20T12:30:27.750Z,95.10
2018-12-20T12:31:33.648Z,95.20
2018-12-20T12:32:39.641Z,95.30
2018-12-20T12:33:45.423Z,95.20
2018-12-20T12:34:51.438Z,95.20
2018-12-20T12:35:57.080Z,95.30
2018-12-20T12:37:03.339Z,95.40
2018-12-20T12:38:08.980Z,95.40
2018-12-20T12:39:15.252Z,95.30
2018-12-20T12:40:21.632Z,95.20
2018-12-20T12:41:27.789Z,95.30
2018-12-20T12:42:34.454Z,95.30
2018-12-20T12:43:40.699Z,95.40
2018-12-20T12:44:46.958Z,95.70
2018-12-20T12:45:53.220Z,95.50
2018-12-20T12:46:59.292Z,95.40
2018-12-20T12:48:05.171Z,95.30
2018-12-20T12:49:11.585Z,95.30
2018-12-20T12:50:17.583Z,95.50
2018-12-20T12:51:23.955Z,95.40
2018-12-20T12:52:29.823Z,95.50
2018-12-20T12:53:35.597Z,95.40
2018-12-20T12:54:41.462Z,95.20
2018-12-20T12:55:47.235Z,95.00
2018-12-20T12:56:52.858Z,95.00
2018-12-20T12:58:04.577Z,95.00
2018-12-20T12:59:07.094Z,95.00
2018-12-20T13:00:15.250Z,95.10
2018-12-20T13:01:22.287Z,95.00
2018-12-20T13:02:27.888Z,95.00
2018-12-20T13:03:34.030Z,94.80
2018-12-20T13:04:39.847Z,94.70
2018-12-20T13:05:45.946Z,94.80
2018-12-20T13:06:52.084Z,94.90
2018-12-20T13:07:58.072Z,94.80
2018-12-20T13:09:04.908Z,94.70
2018-12-20T13:10:11.518Z,94.60
2018-12-20T13:11:17.980Z,94.60
2018-12-20T13:12:23.768Z,94.50
2018-12-20T13:13:29.614Z,94.60
2018-12-20T13:14:35.623Z,94.70
2018-12-20T13:15:41.823Z,94.40
2018-12-20T13:16:47.903Z,94.50
2018-12-20T13:17:53.914Z,94.40
2018-12-20T13:19:00.210Z,94.30
2018-12-20T13:20:08.468Z,94.50
2018-12-20T13:21:14.566Z,94.40
2018-12-20T13:22:20.854Z,94.50
2018-12-20T13:23:27.265Z,94.50
2018-12-20T13:24:33.284Z,94.20
2018-12-20T13:25:39.297Z,94.30
2018-12-20T13:26:45.358Z,94.30
2018-12-20T13:27:51.158Z,94.20
2018-12-20T13:28:57.234Z,94.00
2018-12-20T13:30:03.290Z,93.90
2018-12-20T13:31:09.481Z,94.00
2018-12-20T13:32:15.857Z,93.80
2018-12-20T13:33:21.893Z,93.80
2018-12-20T13:34:28.061Z,93.50
2018-12-20T13:35:34.772Z,93.50
2018-12-20T13:36:40.437Z,93.50
2018-12-20T13:37:47.260Z,93.30
2018-12-20T13:38:53.578Z,92.90
2018-12-20T13:39:59.521Z,92.80
2018-12-20T13:41:05.181Z,92.40
2018-12-20T13:42:11.215Z,92.40
2018-12-20T13:43:17.456Z,92.30
2018-12-20T13:44:23.865Z,92.10
2018-12-20T13:45:30.043Z,91.30
2018-12-20T13:46:36.077Z,90.90
2018-12-20T13:47:42.203Z,90.80
2018-12-20T13:48:48.070Z,90.50
2018-12-20T13:49:54.439Z,90.70
2018-12-20T13:51:01.538Z,90.80
2018-12-20T13:52:07.448Z,90.60
2018-12-20T13:53:13.697Z,90.40
2018-12-20T13:54:19.758Z,90.00
2018-12-20T13:55:26.748Z,89.70
2018-12-20T13:56:32.577Z,90.10
2018-12-20T13:57:38.375Z,89.50
2018-12-20T13:58:44.429Z,88.70
2018-12-20T13:59:50.675Z,88.70
2018-12-20T14:00:56.795Z,88.60
2018-12-20T14:02:02.635Z,88.30
2018-12-20T14:03:08.185Z,88.70
2018-12-20T14:04:13.635Z,87.80
2018-12-20T14:05:19.400Z,87.00
2018-12-20T14:06:25.406Z,86.00
2018-12-20T14:07:31.174Z,84.90
2018-12-20T14:08:36.795Z,85.10
2018-12-20T14:09:42.889Z,85.90
2018-12-20T14:10:48.985Z,86.50
2018-12-20T14:11:54.752Z,87.30
2018-12-20T14:13:01.001Z,87.50